Russellville, South Carolina
Current Conditions -  °F | °C
As of 8:35 AM on Thursday 30 Oct 2014 (Local Time) from KMKS Reporting Station
Overcast Overcast  
Wind Chill: 15°   Ceiling: 2400
Heat Index: 15°   Visibility: 10mi
Dew Point: 14°   Wind: 3mph
Humidity: 94%   Direction: 30°NNE
Pressure: 30"   Gusts: NA
Location:  33.4°N, 79.97°W
Report Text: KMKS 301235Z AUTO 03003KT 10SM OVC024 15/14 A3000 RMK AO2
Loading
Personal Weather Stations






























Interactive Weather Map
Tropical Storm Tracking
New forecast layout! Learn more

10-Day Weather Forecast

Advertisements
Track Severe Weather on mobile